Portada
METAR-TAF:

METAR-TAF

Aeroports :

Mécheria, Algèria

latitud: 34-56N, longitud: 000-26W, altitud: 1149 m

Observació

L'informe es va fer fa 23 minuts, a les 08:00 UTC
Vent 2 kt del Nord/Nord-Est
Temperatura 7°C
Humitat 100%
Pressió 1021 hPa
Visibilitat: 0600 m
Cel cobert a una alçada de 1000 ft
plugim, boira

METAR: DAAY 160800Z 02002KT 0600 -DZ FG OVC010 07/07 Q1021

Hora: 09:23 (08:23 UTC)

Pronòstic

L'informe es va fer fa 3 hores i 23 minuts, a les 05:00 UTC
Pronòstic vàlid del 16 a les 06 UTC al 16 a les 15 UTC
Vent 8 kt del Nord-Oest
Visibilitat: 8000 m
Núvols disperses a una alçada de 3000 ft

TAF: DAAY 160500Z 1606/1615 32008KT 8000 SCT030

Observacions i pronòstics meteorològics de més de 4000 aeroports (METAR i TAF).

Les estacions disponibles són els punts grocs i vermells al mapa.

Posi el ratolí al punt desitjat per veure el nom de l'estació.

Feu clic per veure les observacions i els pronòstics meteorològics.

Per canviar el mapa: feu clic els botons verds amb una creu de color negre per apropar; al botó verd amb un guió per allunyar la imatge; o en les fletxes verdes per a mapes adjacents.


METAR-TAF: